sensor_id;sensor_type;location;lat;lon;timestamp;temperature;humidity
54192;DHT22;40101;53.002;6.488;2024-03-02T00:13:43;8.00;99.90
54192;DHT22;40101;53.002;6.488;2024-03-02T00:34:16;8.20;99.90
54192;DHT22;40101;53.002;6.488;2024-03-02T00:48:08;7.70;99.90
54192;DHT22;40101;53.002;6.488;2024-03-02T00:59:38;8.00;99.90
54192;DHT22;40101;53.002;6.488;2024-03-02T01:31:28;8.20;99.90
54192;DHT22;40101;53.002;6.488;2024-03-02T01:34:33;8.10;99.90
54192;DHT22;40101;53.002;6.488;2024-03-02T01:37:02;8.10;99.90
54192;DHT22;40101;53.002;6.488;2024-03-02T01:39:28;8.00;99.90
54192;DHT22;40101;53.002;6.488;2024-03-02T01:42:14;8.00;99.90
54192;DHT22;40101;53.002;6.488;2024-03-02T01:44:40;7.90;99.90
54192;DHT22;40101;53.002;6.488;2024-03-02T01:47:09;8.00;99.90
54192;DHT22;40101;53.002;6.488;2024-03-02T01:49:35;8.00;99.90
54192;DHT22;40101;53.002;6.488;2024-03-02T01:52:01;8.00;99.90
54192;DHT22;40101;53.002;6.488;2024-03-02T01:57:39;8.10;99.90
54192;DHT22;40101;53.002;6.488;2024-03-02T02:00:05;8.00;99.90
54192;DHT22;40101;53.002;6.488;2024-03-02T02:02:39;8.00;99.90
54192;DHT22;40101;53.002;6.488;2024-03-02T02:05:11;7.90;99.90
54192;DHT22;40101;53.002;6.488;2024-03-02T02:10:45;7.90;99.90
54192;DHT22;40101;53.002;6.488;2024-03-02T02:13:10;7.90;99.90
54192;DHT22;40101;53.002;6.488;2024-03-02T02:15:36;7.90;99.90
54192;DHT22;40101;53.002;6.488;2024-03-02T02:18:10;8.00;99.90
54192;DHT22;40101;53.002;6.488;2024-03-02T02:20:36;7.90;99.90
54192;DHT22;40101;53.002;6.488;2024-03-02T02:23:03;7.80;99.90
54192;DHT22;40101;53.002;6.488;2024-03-02T02:26:03;7.80;99.90
54192;DHT22;40101;53.002;6.488;2024-03-02T02:28:52;7.80;99.90
54192;DHT22;40101;53.002;6.488;2024-03-02T02:31:18;7.80;99.90
54192;DHT22;40101;53.002;6.488;2024-03-02T02:33:43;7.90;99.90
54192;DHT22;40101;53.002;6.488;2024-03-02T02:36:12;7.90;99.90
54192;DHT22;40101;53.002;6.488;2024-03-02T02:38:57;7.90;99.90
54192;DHT22;40101;53.002;6.488;2024-03-02T02:41:29;7.90;99.90
54192;DHT22;40101;53.002;6.488;2024-03-02T02:50:21;8.00;99.90
54192;DHT22;40101;53.002;6.488;2024-03-02T03:02:51;8.10;99.90
54192;DHT22;40101;53.002;6.488;2024-03-02T03:05:18;8.10;99.90
54192;DHT22;40101;53.002;6.488;2024-03-02T03:08:15;8.00;99.90
54192;DHT22;40101;53.002;6.488;2024-03-02T03:11:44;8.10;99.90
54192;DHT22;40101;53.002;6.488;2024-03-02T03:14:09;8.00;99.90
54192;DHT22;40101;53.002;6.488;2024-03-02T03:16:35;8.00;99.90
54192;DHT22;40101;53.002;6.488;2024-03-02T03:19:01;8.10;99.90
54192;DHT22;40101;53.002;6.488;2024-03-02T03:21:39;8.10;99.90
54192;DHT22;40101;53.002;6.488;2024-03-02T03:24:05;8.10;99.90
54192;DHT22;40101;53.002;6.488;2024-03-02T03:26:31;8.10;99.90
54192;DHT22;40101;53.002;6.488;2024-03-02T03:28:57;8.20;99.90
54192;DHT22;40101;53.002;6.488;2024-03-02T03:31:23;8.20;99.90
54192;DHT22;40101;53.002;6.488;2024-03-02T03:33:56;8.20;99.90
54192;DHT22;40101;53.002;6.488;2024-03-02T03:36:23;8.30;99.90
54192;DHT22;40101;53.002;6.488;2024-03-02T03:38:48;8.20;99.90
54192;DHT22;40101;53.002;6.488;2024-03-02T03:41:17;8.10;99.90
54192;DHT22;40101;53.002;6.488;2024-03-02T03:43:43;8.20;99.90
54192;DHT22;40101;53.002;6.488;2024-03-02T03:46:08;8.30;99.90
54192;DHT22;40101;53.002;6.488;2024-03-02T03:48:35;8.40;99.90
54192;DHT22;40101;53.002;6.488;2024-03-02T03:51:00;8.10;99.90
54192;DHT22;40101;53.002;6.488;2024-03-02T03:53:58;8.10;99.90
54192;DHT22;40101;53.002;6.488;2024-03-02T03:56:30;8.30;99.90
54192;DHT22;40101;53.002;6.488;2024-03-02T03:58:59;8.10;99.90
54192;DHT22;40101;53.002;6.488;2024-03-02T04:01:25;8.10;99.90
54192;DHT22;40101;53.002;6.488;2024-03-02T04:06:48;8.20;99.90
54192;DHT22;40101;53.002;6.488;2024-03-02T04:09:13;8.10;99.90
54192;DHT22;40101;53.002;6.488;2024-03-02T04:11:39;8.30;99.90
54192;DHT22;40101;53.002;6.488;2024-03-02T04:14:05;8.20;99.90
54192;DHT22;40101;53.002;6.488;2024-03-02T04:16:31;8.10;99.90
54192;DHT22;40101;53.002;6.488;2024-03-02T04:18:57;8.20;99.90
54192;DHT22;40101;53.002;6.488;2024-03-02T04:21:23;8.20;99.90
54192;DHT22;40101;53.002;6.488;2024-03-02T04:23:48;8.10;99.90
54192;DHT22;40101;53.002;6.488;2024-03-02T04:26:15;8.00;99.90
54192;DHT22;40101;53.002;6.488;2024-03-02T04:28:48;8.10;99.90
54192;DHT22;40101;53.002;6.488;2024-03-02T04:31:15;8.10;99.90
54192;DHT22;40101;53.002;6.488;2024-03-02T04:33:41;8.00;99.90
54192;DHT22;40101;53.002;6.488;2024-03-02T04:36:06;8.00;99.90
54192;DHT22;40101;53.002;6.488;2024-03-02T04:38:35;8.00;99.90
54192;DHT22;40101;53.002;6.488;2024-03-02T04:41:01;8.00;99.90
54192;DHT22;40101;53.002;6.488;2024-03-02T04:43:26;8.00;99.90
54192;DHT22;40101;53.002;6.488;2024-03-02T04:45:52;8.20;99.90
54192;DHT22;40101;53.002;6.488;2024-03-02T04:48:18;8.00;99.90
54192;DHT22;40101;53.002;6.488;2024-03-02T04:50:44;8.00;99.90
54192;DHT22;40101;53.002;6.488;2024-03-02T04:53:35;7.90;99.90
54192;DHT22;40101;53.002;6.488;2024-03-02T04:56:01;7.80;99.90
54192;DHT22;40101;53.002;6.488;2024-03-02T04:58:55;8.20;99.90
54192;DHT22;40101;53.002;6.488;2024-03-02T05:01:21;7.90;99.90
54192;DHT22;40101;53.002;6.488;2024-03-02T05:03:47;8.10;99.90
54192;DHT22;40101;53.002;6.488;2024-03-02T05:06:22;7.80;99.90
54192;DHT22;40101;53.002;6.488;2024-03-02T05:08:48;7.80;99.90
54192;DHT22;40101;53.002;6.488;2024-03-02T05:11:13;8.00;99.90
54192;DHT22;40101;53.002;6.488;2024-03-02T05:14:21;7.70;99.90
54192;DHT22;40101;53.002;6.488;2024-03-02T05:16:47;7.60;99.90
54192;DHT22;40101;53.002;6.488;2024-03-02T05:19:15;7.70;99.90
54192;DHT22;40101;53.002;6.488;2024-03-02T05:22:01;7.90;99.90
54192;DHT22;40101;53.002;6.488;2024-03-02T05:24:26;7.70;99.90
54192;DHT22;40101;53.002;6.488;2024-03-02T05:26:57;7.60;99.90
54192;DHT22;40101;53.002;6.488;2024-03-02T05:29:23;7.60;99.90
54192;DHT22;40101;53.002;6.488;2024-03-02T05:34:55;7.60;99.90
54192;DHT22;40101;53.002;6.488;2024-03-02T05:37:21;7.30;99.90
54192;DHT22;40101;53.002;6.488;2024-03-02T05:39:46;8.10;99.90
54192;DHT22;40101;53.002;6.488;2024-03-02T05:42:13;7.60;99.90
54192;DHT22;40101;53.002;6.488;2024-03-02T05:44:38;7.60;99.90
54192;DHT22;40101;53.002;6.488;2024-03-02T05:47:04;7.60;99.90
54192;DHT22;40101;53.002;6.488;2024-03-02T05:49:30;7.60;99.90
54192;DHT22;40101;53.002;6.488;2024-03-02T05:51:56;7.60;99.90
54192;DHT22;40101;53.002;6.488;2024-03-02T05:54:22;7.40;99.90
54192;DHT22;40101;53.002;6.488;2024-03-02T05:56:48;7.70;99.90
54192;DHT22;40101;53.002;6.488;2024-03-02T05:59:13;7.90;99.90
54192;DHT22;40101;53.002;6.488;2024-03-02T06:01:45;7.60;99.90
54192;DHT22;40101;53.002;6.488;2024-03-02T06:04:19;7.50;99.90
54192;DHT22;40101;53.002;6.488;2024-03-02T06:06:45;7.70;99.90
54192;DHT22;40101;53.002;6.488;2024-03-02T06:09:14;7.70;99.90
54192;DHT22;40101;53.002;6.488;2024-03-02T06:12:06;7.30;99.90
54192;DHT22;40101;53.002;6.488;2024-03-02T06:14:34;7.60;99.90
54192;DHT22;40101;53.002;6.488;2024-03-02T06:17:02;7.50;99.90
54192;DHT22;40101;53.002;6.488;2024-03-02T06:19:28;7.50;99.90
54192;DHT22;40101;53.002;6.488;2024-03-02T06:22:12;7.60;99.90
54192;DHT22;40101;53.002;6.488;2024-03-02T06:24:37;7.70;99.90
54192;DHT22;40101;53.002;6.488;2024-03-02T06:27:03;7.40;99.90
54192;DHT22;40101;53.002;6.488;2024-03-02T06:29:29;7.30;99.90
54192;DHT22;40101;53.002;6.488;2024-03-02T06:31:57;7.40;99.90
54192;DHT22;40101;53.002;6.488;2024-03-02T06:34:23;7.20;99.90
54192;DHT22;40101;53.002;6.488;2024-03-02T06:36:51;7.30;99.90
54192;DHT22;40101;53.002;6.488;2024-03-02T06:39:17;7.20;99.90
54192;DHT22;40101;53.002;6.488;2024-03-02T06:41:43;7.10;99.90
54192;DHT22;40101;53.002;6.488;2024-03-02T06:44:19;7.10;99.90
54192;DHT22;40101;53.002;6.488;2024-03-02T06:46:45;7.30;99.90
54192;DHT22;40101;53.002;6.488;2024-03-02T06:52:42;6.90;99.90
54192;DHT22;40101;53.002;6.488;2024-03-02T06:55:17;7.00;99.90
54192;DHT22;40101;53.002;6.488;2024-03-02T06:57:58;7.00;99.90
54192;DHT22;40101;53.002;6.488;2024-03-02T07:00:24;7.00;99.90
54192;DHT22;40101;53.002;6.488;2024-03-02T07:06:46;6.90;99.90
54192;DHT22;40101;53.002;6.488;2024-03-02T07:09:11;7.00;99.90
54192;DHT22;40101;53.002;6.488;2024-03-02T07:11:40;7.00;99.90
54192;DHT22;40101;53.002;6.488;2024-03-02T07:17:47;7.20;99.90
54192;DHT22;40101;53.002;6.488;2024-03-02T07:20:15;7.30;99.90
54192;DHT22;40101;53.002;6.488;2024-03-02T07:22:49;7.40;99.90
54192;DHT22;40101;53.002;6.488;2024-03-02T07:25:15;7.60;99.90
54192;DHT22;40101;53.002;6.488;2024-03-02T07:27:40;7.80;99.90
54192;DHT22;40101;53.002;6.488;2024-03-02T07:30:14;8.00;99.90
54192;DHT22;40101;53.002;6.488;2024-03-02T07:32:44;8.10;99.90
54192;DHT22;40101;53.002;6.488;2024-03-02T07:38:24;8.00;99.90
54192;DHT22;40101;53.002;6.488;2024-03-02T07:40:53;8.10;99.90
54192;DHT22;40101;53.002;6.488;2024-03-02T07:43:19;8.30;99.90
54192;DHT22;40101;53.002;6.488;2024-03-02T07:45:46;8.50;99.90
54192;DHT22;40101;53.002;6.488;2024-03-02T07:48:33;9.40;99.90
54192;DHT22;40101;53.002;6.488;2024-03-02T07:51:18;10.70;99.90
54192;DHT22;40101;53.002;6.488;2024-03-02T07:53:46;11.80;99.90
54192;DHT22;40101;53.002;6.488;2024-03-02T07:56:15;12.30;99.90
54192;DHT22;40101;53.002;6.488;2024-03-02T07:58:48;12.60;99.90
54192;DHT22;40101;53.002;6.488;2024-03-02T08:01:17;12.40;99.90
54192;DHT22;40101;53.002;6.488;2024-03-02T08:03:43;12.40;99.90
54192;DHT22;40101;53.002;6.488;2024-03-02T08:06:17;12.70;99.90
54192;DHT22;40101;53.002;6.488;2024-03-02T08:08:43;13.20;99.90
54192;DHT22;40101;53.002;6.488;2024-03-02T08:11:08;13.70;99.90
54192;DHT22;40101;53.002;6.488;2024-03-02T08:13:34;14.30;99.90
54192;DHT22;40101;53.002;6.488;2024-03-02T08:16:00;14.60;99.90
54192;DHT22;40101;53.002;6.488;2024-03-02T08:18:28;15.00;99.90
54192;DHT22;40101;53.002;6.488;2024-03-02T08:20:57;15.20;99.90
54192;DHT22;40101;53.002;6.488;2024-03-02T08:23:32;15.20;99.90
54192;DHT22;40101;53.002;6.488;2024-03-02T08:25:58;14.00;99.90
54192;DHT22;40101;53.002;6.488;2024-03-02T08:28:23;13.00;99.90
54192;DHT22;40101;53.002;6.488;2024-03-02T08:30:49;12.10;99.90
54192;DHT22;40101;53.002;6.488;2024-03-02T08:33:15;11.40;99.90
54192;DHT22;40101;53.002;6.488;2024-03-02T08:35:40;10.90;99.90
54192;DHT22;40101;53.002;6.488;2024-03-02T08:38:06;10.60;99.90
54192;DHT22;40101;53.002;6.488;2024-03-02T08:40:32;10.30;99.90
54192;DHT22;40101;53.002;6.488;2024-03-02T08:42:58;10.40;99.90
54192;DHT22;40101;53.002;6.488;2024-03-02T08:45:24;10.20;99.90
54192;DHT22;40101;53.002;6.488;2024-03-02T08:47:50;10.10;99.90
54192;DHT22;40101;53.002;6.488;2024-03-02T08:50:15;10.20;99.90
54192;DHT22;40101;53.002;6.488;2024-03-02T08:52:41;10.00;99.90
54192;DHT22;40101;53.002;6.488;2024-03-02T08:55:07;9.80;99.90
54192;DHT22;40101;53.002;6.488;2024-03-02T08:57:33;9.70;99.90
54192;DHT22;40101;53.002;6.488;2024-03-02T09:00:00;9.60;99.90
54192;DHT22;40101;53.002;6.488;2024-03-02T09:02:26;9.70;99.90
54192;DHT22;40101;53.002;6.488;2024-03-02T09:04:52;9.90;99.90
54192;DHT22;40101;53.002;6.488;2024-03-02T09:07:18;10.30;99.90
54192;DHT22;40101;53.002;6.488;2024-03-02T09:09:49;10.60;99.90
54192;DHT22;40101;53.002;6.488;2024-03-02T09:12:15;10.20;99.90
54192;DHT22;40101;53.002;6.488;2024-03-02T09:14:41;10.40;99.90
54192;DHT22;40101;53.002;6.488;2024-03-02T09:17:07;10.50;99.90
54192;DHT22;40101;53.002;6.488;2024-03-02T09:19:33;10.40;99.90
54192;DHT22;40101;53.002;6.488;2024-03-02T09:22:04;10.40;99.90
54192;DHT22;40101;53.002;6.488;2024-03-02T09:24:31;10.20;99.90
54192;DHT22;40101;53.002;6.488;2024-03-02T09:26:59;10.10;99.90
54192;DHT22;40101;53.002;6.488;2024-03-02T09:29:24;10.20;99.90
54192;DHT22;40101;53.002;6.488;2024-03-02T09:31:50;10.20;99.90
54192;DHT22;40101;53.002;6.488;2024-03-02T09:34:16;10.10;99.90
54192;DHT22;40101;53.002;6.488;2024-03-02T09:36:42;10.10;99.90
54192;DHT22;40101;53.002;6.488;2024-03-02T09:39:17;10.10;99.90
54192;DHT22;40101;53.002;6.488;2024-03-02T09:41:43;10.30;99.90
54192;DHT22;40101;53.002;6.488;2024-03-02T09:44:09;10.00;99.90
54192;DHT22;40101;53.002;6.488;2024-03-02T09:46:35;9.90;99.90
54192;DHT22;40101;53.002;6.488;2024-03-02T09:49:02;9.90;99.90
54192;DHT22;40101;53.002;6.488;2024-03-02T09:51:28;10.00;99.90
54192;DHT22;40101;53.002;6.488;2024-03-02T09:53:55;10.20;99.90
54192;DHT22;40101;53.002;6.488;2024-03-02T09:56:21;10.40;99.90
54192;DHT22;40101;53.002;6.488;2024-03-02T09:58:47;10.30;99.90
54192;DHT22;40101;53.002;6.488;2024-03-02T10:01:13;10.30;99.90
54192;DHT22;40101;53.002;6.488;2024-03-02T10:03:39;10.40;99.90
54192;DHT22;40101;53.002;6.488;2024-03-02T10:06:25;10.50;99.90
54192;DHT22;40101;53.002;6.488;2024-03-02T10:08:51;10.50;99.90
54192;DHT22;40101;53.002;6.488;2024-03-02T10:11:35;10.50;99.90
54192;DHT22;40101;53.002;6.488;2024-03-02T10:14:12;10.70;99.90
54192;DHT22;40101;53.002;6.488;2024-03-02T10:16:39;10.80;99.90
54192;DHT22;40101;53.002;6.488;2024-03-02T10:19:23;11.30;99.90
54192;DHT22;40101;53.002;6.488;2024-03-02T10:21:54;11.20;99.90
54192;DHT22;40101;53.002;6.488;2024-03-02T10:24:21;11.50;99.90
54192;DHT22;40101;53.002;6.488;2024-03-02T10:26:47;12.50;99.90
54192;DHT22;40101;53.002;6.488;2024-03-02T10:29:13;12.90;99.90
54192;DHT22;40101;53.002;6.488;2024-03-02T10:31:40;13.00;99.90
54192;DHT22;40101;53.002;6.488;2024-03-02T10:34:07;12.70;99.90
54192;DHT22;40101;53.002;6.488;2024-03-02T10:36:34;12.30;99.90
54192;DHT22;40101;53.002;6.488;2024-03-02T10:39:02;12.00;99.90
54192;DHT22;40101;53.002;6.488;2024-03-02T10:41:32;11.70;99.90
54192;DHT22;40101;53.002;6.488;2024-03-02T10:43:59;11.40;99.90
54192;DHT22;40101;53.002;6.488;2024-03-02T10:46:31;11.40;99.90
54192;DHT22;40101;53.002;6.488;2024-03-02T10:48:58;11.40;99.90
54192;DHT22;40101;53.002;6.488;2024-03-02T10:51:28;11.60;99.90
54192;DHT22;40101;53.002;6.488;2024-03-02T10:53:57;11.80;99.90
54192;DHT22;40101;53.002;6.488;2024-03-02T10:56:30;11.70;99.90
54192;DHT22;40101;53.002;6.488;2024-03-02T10:59:06;11.70;99.90
54192;DHT22;40101;53.002;6.488;2024-03-02T11:01:39;11.80;99.90
54192;DHT22;40101;53.002;6.488;2024-03-02T11:04:08;11.90;99.90
54192;DHT22;40101;53.002;6.488;2024-03-02T11:06:36;11.90;99.90
54192;DHT22;40101;53.002;6.488;2024-03-02T11:09:07;11.90;99.90
54192;DHT22;40101;53.002;6.488;2024-03-02T11:11:41;12.00;99.90
54192;DHT22;40101;53.002;6.488;2024-03-02T11:14:13;11.90;99.90
54192;DHT22;40101;53.002;6.488;2024-03-02T11:16:39;12.00;99.90
54192;DHT22;40101;53.002;6.488;2024-03-02T11:19:11;11.80;99.90
54192;DHT22;40101;53.002;6.488;2024-03-02T11:21:38;11.90;99.90
54192;DHT22;40101;53.002;6.488;2024-03-02T11:26:56;12.00;99.90
54192;DHT22;40101;53.002;6.488;2024-03-02T11:32:20;12.40;99.90
54192;DHT22;40101;53.002;6.488;2024-03-02T11:34:47;12.30;99.90
54192;DHT22;40101;53.002;6.488;2024-03-02T11:37:18;12.40;99.90
54192;DHT22;40101;53.002;6.488;2024-03-02T11:39:46;12.30;99.90
54192;DHT22;40101;53.002;6.488;2024-03-02T11:42:13;12.30;99.90
54192;DHT22;40101;53.002;6.488;2024-03-02T11:44:45;12.50;99.90
54192;DHT22;40101;53.002;6.488;2024-03-02T11:47:13;12.60;99.90
54192;DHT22;40101;53.002;6.488;2024-03-02T11:49:49;12.60;99.90
54192;DHT22;40101;53.002;6.488;2024-03-02T11:52:16;12.40;99.90
54192;DHT22;40101;53.002;6.488;2024-03-02T11:54:44;12.50;99.90
54192;DHT22;40101;53.002;6.488;2024-03-02T11:57:18;12.60;99.90
54192;DHT22;40101;53.002;6.488;2024-03-02T11:59:48;12.30;99.90
54192;DHT22;40101;53.002;6.488;2024-03-02T12:02:19;12.20;99.90
54192;DHT22;40101;53.002;6.488;2024-03-02T12:04:46;12.70;99.90
54192;DHT22;40101;53.002;6.488;2024-03-02T12:07:20;12.50;99.90
54192;DHT22;40101;53.002;6.488;2024-03-02T12:09:59;12.50;99.90
54192;DHT22;40101;53.002;6.488;2024-03-02T12:12:25;12.40;99.90
54192;DHT22;40101;53.002;6.488;2024-03-02T12:14:53;12.50;99.90
54192;DHT22;40101;53.002;6.488;2024-03-02T12:17:21;12.60;99.90
54192;DHT22;40101;53.002;6.488;2024-03-02T12:19:47;12.50;99.90
54192;DHT22;40101;53.002;6.488;2024-03-02T12:22:13;12.40;99.90
54192;DHT22;40101;53.002;6.488;2024-03-02T12:24:38;12.30;99.90
54192;DHT22;40101;53.002;6.488;2024-03-02T12:27:05;12.30;99.90
54192;DHT22;40101;53.002;6.488;2024-03-02T12:29:32;12.20;99.90
54192;DHT22;40101;53.002;6.488;2024-03-02T12:31:59;12.40;99.90
54192;DHT22;40101;53.002;6.488;2024-03-02T12:34:27;12.40;99.90
54192;DHT22;40101;53.002;6.488;2024-03-02T12:36:53;12.70;99.90
54192;DHT22;40101;53.002;6.488;2024-03-02T12:39:19;12.70;99.90
54192;DHT22;40101;53.002;6.488;2024-03-02T12:41:50;12.60;99.90
54192;DHT22;40101;53.002;6.488;2024-03-02T12:44:17;12.40;99.90
54192;DHT22;40101;53.002;6.488;2024-03-02T12:46:44;12.50;99.90
54192;DHT22;40101;53.002;6.488;2024-03-02T12:49:12;12.60;99.90
54192;DHT22;40101;53.002;6.488;2024-03-02T12:51:38;12.70;99.90
54192;DHT22;40101;53.002;6.488;2024-03-02T12:54:08;12.80;99.90
54192;DHT22;40101;53.002;6.488;2024-03-02T12:56:34;12.80;99.90
54192;DHT22;40101;53.002;6.488;2024-03-02T12:59:04;12.90;99.90
54192;DHT22;40101;53.002;6.488;2024-03-02T13:01:30;13.20;99.90
54192;DHT22;40101;53.002;6.488;2024-03-02T13:03:58;13.10;99.90
54192;DHT22;40101;53.002;6.488;2024-03-02T13:06:25;13.00;99.90
54192;DHT22;40101;53.002;6.488;2024-03-02T13:08:53;12.90;99.90
54192;DHT22;40101;53.002;6.488;2024-03-02T13:11:20;12.70;99.90
54192;DHT22;40101;53.002;6.488;2024-03-02T13:13:46;12.70;99.90
54192;DHT22;40101;53.002;6.488;2024-03-02T13:16:12;13.00;99.90
54192;DHT22;40101;53.002;6.488;2024-03-02T13:18:39;12.60;99.90
54192;DHT22;40101;53.002;6.488;2024-03-02T13:21:05;12.80;99.90
54192;DHT22;40101;53.002;6.488;2024-03-02T13:23:31;12.70;99.90
54192;DHT22;40101;53.002;6.488;2024-03-02T13:25:58;12.60;99.90
54192;DHT22;40101;53.002;6.488;2024-03-02T13:28:24;12.80;99.90
54192;DHT22;40101;53.002;6.488;2024-03-02T13:30:50;12.60;99.90
54192;DHT22;40101;53.002;6.488;2024-03-02T13:33:16;12.60;99.90
54192;DHT22;40101;53.002;6.488;2024-03-02T13:35:44;12.70;99.90
54192;DHT22;40101;53.002;6.488;2024-03-02T13:38:10;12.70;99.90
54192;DHT22;40101;53.002;6.488;2024-03-02T13:40:36;12.70;99.90
54192;DHT22;40101;53.002;6.488;2024-03-02T13:43:02;13.00;99.90
54192;DHT22;40101;53.002;6.488;2024-03-02T13:45:28;12.60;99.90
54192;DHT22;40101;53.002;6.488;2024-03-02T13:47:54;12.60;99.90
54192;DHT22;40101;53.002;6.488;2024-03-02T13:50:19;12.50;99.90
54192;DHT22;40101;53.002;6.488;2024-03-02T13:52:45;12.50;99.90
54192;DHT22;40101;53.002;6.488;2024-03-02T13:55:11;12.60;99.90
54192;DHT22;40101;53.002;6.488;2024-03-02T13:57:37;12.50;99.90
54192;DHT22;40101;53.002;6.488;2024-03-02T14:00:03;12.50;99.90
54192;DHT22;40101;53.002;6.488;2024-03-02T14:02:36;12.50;99.90
54192;DHT22;40101;53.002;6.488;2024-03-02T14:05:01;12.50;99.90
54192;DHT22;40101;53.002;6.488;2024-03-02T14:07:27;12.50;99.90
54192;DHT22;40101;53.002;6.488;2024-03-02T14:09:53;12.40;99.90
54192;DHT22;40101;53.002;6.488;2024-03-02T14:12:19;12.40;99.90
54192;DHT22;40101;53.002;6.488;2024-03-02T14:14:44;12.30;99.90
54192;DHT22;40101;53.002;6.488;2024-03-02T14:17:10;12.30;99.90
54192;DHT22;40101;53.002;6.488;2024-03-02T14:19:40;12.40;99.90
54192;DHT22;40101;53.002;6.488;2024-03-02T14:22:06;12.50;99.90
54192;DHT22;40101;53.002;6.488;2024-03-02T14:24:31;12.50;99.90
54192;DHT22;40101;53.002;6.488;2024-03-02T14:26:57;12.40;99.90
54192;DHT22;40101;53.002;6.488;2024-03-02T14:29:24;12.40;99.90
54192;DHT22;40101;53.002;6.488;2024-03-02T14:31:50;12.50;99.90
54192;DHT22;40101;53.002;6.488;2024-03-02T14:34:16;12.50;99.90
54192;DHT22;40101;53.002;6.488;2024-03-02T14:36:41;12.60;99.90
54192;DHT22;40101;53.002;6.488;2024-03-02T14:39:10;12.60;99.90
54192;DHT22;40101;53.002;6.488;2024-03-02T14:41:36;12.60;99.90
54192;DHT22;40101;53.002;6.488;2024-03-02T14:44:02;12.80;99.90
54192;DHT22;40101;53.002;6.488;2024-03-02T14:46:28;12.70;99.90
54192;DHT22;40101;53.002;6.488;2024-03-02T14:48:54;12.90;99.90
54192;DHT22;40101;53.002;6.488;2024-03-02T14:51:20;12.80;99.90
54192;DHT22;40101;53.002;6.488;2024-03-02T14:53:46;12.80;99.90
54192;DHT22;40101;53.002;6.488;2024-03-02T14:56:12;12.80;99.90
54192;DHT22;40101;53.002;6.488;2024-03-02T14:58:39;12.70;99.90
54192;DHT22;40101;53.002;6.488;2024-03-02T15:01:05;12.70;99.90
54192;DHT22;40101;53.002;6.488;2024-03-02T15:03:31;12.80;99.90
54192;DHT22;40101;53.002;6.488;2024-03-02T15:05:57;13.00;99.90
54192;DHT22;40101;53.002;6.488;2024-03-02T15:08:23;12.70;99.90
54192;DHT22;40101;53.002;6.488;2024-03-02T15:10:52;12.70;99.90
54192;DHT22;40101;53.002;6.488;2024-03-02T15:13:21;12.60;99.90
54192;DHT22;40101;53.002;6.488;2024-03-02T15:15:47;12.60;99.90
54192;DHT22;40101;53.002;6.488;2024-03-02T15:18:12;12.50;99.90
54192;DHT22;40101;53.002;6.488;2024-03-02T15:20:38;12.70;99.90
54192;DHT22;40101;53.002;6.488;2024-03-02T15:23:06;12.70;99.90
54192;DHT22;40101;53.002;6.488;2024-03-02T15:25:31;12.80;99.90
54192;DHT22;40101;53.002;6.488;2024-03-02T15:27:57;12.80;99.90
54192;DHT22;40101;53.002;6.488;2024-03-02T15:30:26;12.80;99.90
54192;DHT22;40101;53.002;6.488;2024-03-02T15:32:52;12.80;99.90
54192;DHT22;40101;53.002;6.488;2024-03-02T15:35:17;12.90;99.90
54192;DHT22;40101;53.002;6.488;2024-03-02T15:37:43;12.90;99.90
54192;DHT22;40101;53.002;6.488;2024-03-02T15:40:09;12.80;99.90
54192;DHT22;40101;53.002;6.488;2024-03-02T15:42:35;12.90;99.90
54192;DHT22;40101;53.002;6.488;2024-03-02T15:45:01;12.80;99.90
54192;DHT22;40101;53.002;6.488;2024-03-02T15:47:27;12.60;99.90
54192;DHT22;40101;53.002;6.488;2024-03-02T15:49:53;12.60;99.90
54192;DHT22;40101;53.002;6.488;2024-03-02T15:52:19;12.40;99.90
54192;DHT22;40101;53.002;6.488;2024-03-02T15:54:46;12.40;99.90
54192;DHT22;40101;53.002;6.488;2024-03-02T15:57:12;12.40;99.90
54192;DHT22;40101;53.002;6.488;2024-03-02T15:59:38;12.30;99.90
54192;DHT22;40101;53.002;6.488;2024-03-02T16:02:03;12.20;99.90
54192;DHT22;40101;53.002;6.488;2024-03-02T16:04:29;12.20;99.90
54192;DHT22;40101;53.002;6.488;2024-03-02T16:06:55;12.20;99.90
54192;DHT22;40101;53.002;6.488;2024-03-02T16:09:20;12.10;99.90
54192;DHT22;40101;53.002;6.488;2024-03-02T16:11:46;12.10;99.90
54192;DHT22;40101;53.002;6.488;2024-03-02T16:14:16;12.10;99.90
54192;DHT22;40101;53.002;6.488;2024-03-02T16:16:42;12.10;99.90
54192;DHT22;40101;53.002;6.488;2024-03-02T16:19:08;12.00;99.90
54192;DHT22;40101;53.002;6.488;2024-03-02T16:21:34;12.00;99.90
54192;DHT22;40101;53.002;6.488;2024-03-02T16:23:59;12.00;99.90
54192;DHT22;40101;53.002;6.488;2024-03-02T16:26:25;12.10;99.90
54192;DHT22;40101;53.002;6.488;2024-03-02T16:28:51;11.90;99.90
54192;DHT22;40101;53.002;6.488;2024-03-02T16:31:16;11.90;99.90
54192;DHT22;40101;53.002;6.488;2024-03-02T16:33:44;11.90;99.90
54192;DHT22;40101;53.002;6.488;2024-03-02T16:36:11;11.90;99.90
54192;DHT22;40101;53.002;6.488;2024-03-02T16:38:37;11.80;99.90
54192;DHT22;40101;53.002;6.488;2024-03-02T16:41:03;11.80;99.90
54192;DHT22;40101;53.002;6.488;2024-03-02T16:43:29;11.70;99.90
54192;DHT22;40101;53.002;6.488;2024-03-02T16:45:56;11.70;99.90
54192;DHT22;40101;53.002;6.488;2024-03-02T16:48:22;11.60;99.90
54192;DHT22;40101;53.002;6.488;2024-03-02T16:50:50;11.60;99.90
54192;DHT22;40101;53.002;6.488;2024-03-02T16:53:16;11.50;99.90
54192;DHT22;40101;53.002;6.488;2024-03-02T16:55:42;11.50;99.90
54192;DHT22;40101;53.002;6.488;2024-03-02T16:58:08;11.50;99.90
54192;DHT22;40101;53.002;6.488;2024-03-02T17:00:34;11.30;99.90
54192;DHT22;40101;53.002;6.488;2024-03-02T17:03:00;11.40;99.90
54192;DHT22;40101;53.002;6.488;2024-03-02T17:05:25;11.10;99.90
54192;DHT22;40101;53.002;6.488;2024-03-02T17:07:51;11.10;99.90
54192;DHT22;40101;53.002;6.488;2024-03-02T17:10:18;11.00;99.90
54192;DHT22;40101;53.002;6.488;2024-03-02T17:12:44;10.90;99.90
54192;DHT22;40101;53.002;6.488;2024-03-02T17:15:10;11.00;99.90
54192;DHT22;40101;53.002;6.488;2024-03-02T17:17:35;10.80;99.90
54192;DHT22;40101;53.002;6.488;2024-03-02T17:20:01;10.90;99.90
54192;DHT22;40101;53.002;6.488;2024-03-02T17:22:27;10.80;99.90
54192;DHT22;40101;53.002;6.488;2024-03-02T17:24:53;10.60;99.90
54192;DHT22;40101;53.002;6.488;2024-03-02T17:27:21;10.70;99.90
54192;DHT22;40101;53.002;6.488;2024-03-02T17:29:47;10.60;99.90
54192;DHT22;40101;53.002;6.488;2024-03-02T17:32:12;10.50;99.90
54192;DHT22;40101;53.002;6.488;2024-03-02T17:34:38;10.60;99.90
54192;DHT22;40101;53.002;6.488;2024-03-02T17:37:06;10.50;99.90
54192;DHT22;40101;53.002;6.488;2024-03-02T17:39:32;10.40;99.90
54192;DHT22;40101;53.002;6.488;2024-03-02T17:41:57;10.40;99.90
54192;DHT22;40101;53.002;6.488;2024-03-02T17:44:23;10.50;99.90
54192;DHT22;40101;53.002;6.488;2024-03-02T17:46:49;10.40;99.90
54192;DHT22;40101;53.002;6.488;2024-03-02T17:49:15;10.40;99.90
54192;DHT22;40101;53.002;6.488;2024-03-02T17:51:40;10.40;99.90
54192;DHT22;40101;53.002;6.488;2024-03-02T17:54:06;10.30;99.90